sensor_id;sensor_type;location;lat;lon;timestamp;temperature;humidity
19483;DHT22;9882;51.166;6.992;2022-12-20T00:01:49;9.20;99.90
19483;DHT22;9882;51.166;6.992;2022-12-20T00:04:17;9.20;99.90
19483;DHT22;9882;51.166;6.992;2022-12-20T00:06:46;9.30;99.90
19483;DHT22;9882;51.166;6.992;2022-12-20T00:09:16;9.50;99.90
19483;DHT22;9882;51.166;6.992;2022-12-20T00:11:44;9.40;99.90
19483;DHT22;9882;51.166;6.992;2022-12-20T00:14:13;9.10;99.90
19483;DHT22;9882;51.166;6.992;2022-12-20T00:16:41;9.20;99.90
19483;DHT22;9882;51.166;6.992;2022-12-20T00:19:10;9.40;99.90
19483;DHT22;9882;51.166;6.992;2022-12-20T00:21:39;9.40;99.90
19483;DHT22;9882;51.166;6.992;2022-12-20T00:24:08;9.40;99.90
19483;DHT22;9882;51.166;6.992;2022-12-20T00:26:38;9.40;99.90
19483;DHT22;9882;51.166;6.992;2022-12-20T00:29:07;9.50;99.90
19483;DHT22;9882;51.166;6.992;2022-12-20T00:31:35;9.50;99.90
19483;DHT22;9882;51.166;6.992;2022-12-20T00:34:04;9.40;99.90
19483;DHT22;9882;51.166;6.992;2022-12-20T00:36:43;9.40;99.90
19483;DHT22;9882;51.166;6.992;2022-12-20T00:39:12;9.60;99.90
19483;DHT22;9882;51.166;6.992;2022-12-20T00:41:43;9.50;99.90
19483;DHT22;9882;51.166;6.992;2022-12-20T00:44:13;9.60;99.90
19483;DHT22;9882;51.166;6.992;2022-12-20T00:46:42;9.50;99.90
19483;DHT22;9882;51.166;6.992;2022-12-20T00:49:11;9.70;99.90
19483;DHT22;9882;51.166;6.992;2022-12-20T00:51:40;9.60;99.90
19483;DHT22;9882;51.166;6.992;2022-12-20T00:54:09;9.60;99.90
19483;DHT22;9882;51.166;6.992;2022-12-20T00:56:38;9.70;99.90
19483;DHT22;9882;51.166;6.992;2022-12-20T00:59:09;9.70;99.90
19483;DHT22;9882;51.166;6.992;2022-12-20T01:01:38;9.70;99.90
19483;DHT22;9882;51.166;6.992;2022-12-20T01:04:07;9.70;99.90
19483;DHT22;9882;51.166;6.992;2022-12-20T01:06:36;9.80;99.90
19483;DHT22;9882;51.166;6.992;2022-12-20T01:09:05;9.60;99.90
19483;DHT22;9882;51.166;6.992;2022-12-20T01:11:36;9.60;99.90
19483;DHT22;9882;51.166;6.992;2022-12-20T01:14:07;9.60;99.90
19483;DHT22;9882;51.166;6.992;2022-12-20T01:16:42;9.60;99.90
19483;DHT22;9882;51.166;6.992;2022-12-20T01:19:16;9.50;99.90
19483;DHT22;9882;51.166;6.992;2022-12-20T01:21:46;9.50;99.90
19483;DHT22;9882;51.166;6.992;2022-12-20T01:24:17;9.70;99.90
19483;DHT22;9882;51.166;6.992;2022-12-20T01:26:47;9.80;99.90
19483;DHT22;9882;51.166;6.992;2022-12-20T01:29:18;9.60;99.90
19483;DHT22;9882;51.166;6.992;2022-12-20T01:31:49;9.50;99.90
19483;DHT22;9882;51.166;6.992;2022-12-20T01:34:18;9.40;99.90
19483;DHT22;9882;51.166;6.992;2022-12-20T01:36:47;9.50;99.90
19483;DHT22;9882;51.166;6.992;2022-12-20T01:39:16;9.40;99.90
19483;DHT22;9882;51.166;6.992;2022-12-20T01:41:46;9.40;99.90
19483;DHT22;9882;51.166;6.992;2022-12-20T01:44:51;9.30;99.90
19483;DHT22;9882;51.166;6.992;2022-12-20T01:47:23;9.40;99.90
19483;DHT22;9882;51.166;6.992;2022-12-20T01:49:54;9.40;99.90
19483;DHT22;9882;51.166;6.992;2022-12-20T01:52:28;9.40;99.90
19483;DHT22;9882;51.166;6.992;2022-12-20T01:55:02;9.40;99.90
19483;DHT22;9882;51.166;6.992;2022-12-20T01:57:37;9.50;99.90
19483;DHT22;9882;51.166;6.992;2022-12-20T02:00:09;9.50;99.90
19483;DHT22;9882;51.166;6.992;2022-12-20T02:02:45;9.50;99.90
19483;DHT22;9882;51.166;6.992;2022-12-20T02:05:15;9.50;99.90
19483;DHT22;9882;51.166;6.992;2022-12-20T02:07:46;9.30;99.90
19483;DHT22;9882;51.166;6.992;2022-12-20T02:10:18;9.30;99.90
19483;DHT22;9882;51.166;6.992;2022-12-20T02:12:50;9.40;99.90
19483;DHT22;9882;51.166;6.992;2022-12-20T02:15:31;9.40;99.90
19483;DHT22;9882;51.166;6.992;2022-12-20T02:18:15;9.40;99.90
19483;DHT22;9882;51.166;6.992;2022-12-20T02:21:11;9.40;99.90
19483;DHT22;9882;51.166;6.992;2022-12-20T02:24:23;9.50;99.90
19483;DHT22;9882;51.166;6.992;2022-12-20T02:27:24;9.40;99.90
19483;DHT22;9882;51.166;6.992;2022-12-20T02:30:07;9.40;99.90
19483;DHT22;9882;51.166;6.992;2022-12-20T02:32:41;9.30;99.90
19483;DHT22;9882;51.166;6.992;2022-12-20T02:35:18;9.30;99.90
19483;DHT22;9882;51.166;6.992;2022-12-20T02:37:49;9.20;99.90
19483;DHT22;9882;51.166;6.992;2022-12-20T02:40:22;9.10;99.90
19483;DHT22;9882;51.166;6.992;2022-12-20T02:42:56;9.20;99.90
19483;DHT22;9882;51.166;6.992;2022-12-20T02:45:31;9.20;99.90
19483;DHT22;9882;51.166;6.992;2022-12-20T02:48:04;9.10;99.90
19483;DHT22;9882;51.166;6.992;2022-12-20T02:50:38;9.20;99.90
19483;DHT22;9882;51.166;6.992;2022-12-20T02:53:09;9.00;99.90
19483;DHT22;9882;51.166;6.992;2022-12-20T02:55:45;9.10;99.90
19483;DHT22;9882;51.166;6.992;2022-12-20T02:58:22;9.10;99.90
19483;DHT22;9882;51.166;6.992;2022-12-20T03:01:02;9.10;99.90
19483;DHT22;9882;51.166;6.992;2022-12-20T03:03:33;9.20;99.90
19483;DHT22;9882;51.166;6.992;2022-12-20T03:06:03;9.20;99.90
19483;DHT22;9882;51.166;6.992;2022-12-20T03:08:32;9.20;99.90
19483;DHT22;9882;51.166;6.992;2022-12-20T03:11:01;9.20;99.90
19483;DHT22;9882;51.166;6.992;2022-12-20T03:13:31;9.30;99.90
19483;DHT22;9882;51.166;6.992;2022-12-20T03:16:08;9.20;99.90
19483;DHT22;9882;51.166;6.992;2022-12-20T03:18:38;9.30;99.90
19483;DHT22;9882;51.166;6.992;2022-12-20T03:21:07;9.20;99.90
19483;DHT22;9882;51.166;6.992;2022-12-20T03:23:37;9.30;99.90
19483;DHT22;9882;51.166;6.992;2022-12-20T03:26:06;9.30;99.90
19483;DHT22;9882;51.166;6.992;2022-12-20T03:28:41;9.20;99.90
19483;DHT22;9882;51.166;6.992;2022-12-20T03:31:15;9.20;99.90
19483;DHT22;9882;51.166;6.992;2022-12-20T03:33:50;9.20;99.90
19483;DHT22;9882;51.166;6.992;2022-12-20T03:36:19;9.30;99.90
19483;DHT22;9882;51.166;6.992;2022-12-20T03:38:55;9.30;99.90
19483;DHT22;9882;51.166;6.992;2022-12-20T03:41:27;9.30;99.90
19483;DHT22;9882;51.166;6.992;2022-12-20T03:43:56;9.20;99.90
19483;DHT22;9882;51.166;6.992;2022-12-20T03:46:27;9.30;99.90
19483;DHT22;9882;51.166;6.992;2022-12-20T03:48:57;9.30;99.90
19483;DHT22;9882;51.166;6.992;2022-12-20T03:51:26;9.20;99.90
19483;DHT22;9882;51.166;6.992;2022-12-20T03:53:55;9.30;99.90
19483;DHT22;9882;51.166;6.992;2022-12-20T03:56:38;9.30;99.90
19483;DHT22;9882;51.166;6.992;2022-12-20T03:59:07;9.20;99.90
19483;DHT22;9882;51.166;6.992;2022-12-20T04:01:38;9.20;99.90
19483;DHT22;9882;51.166;6.992;2022-12-20T04:04:08;9.20;99.90
19483;DHT22;9882;51.166;6.992;2022-12-20T04:06:38;9.20;99.90
19483;DHT22;9882;51.166;6.992;2022-12-20T04:09:07;9.20;99.90
19483;DHT22;9882;51.166;6.992;2022-12-20T04:11:43;9.20;99.90
19483;DHT22;9882;51.166;6.992;2022-12-20T04:14:14;9.20;99.90
19483;DHT22;9882;51.166;6.992;2022-12-20T04:16:45;9.20;99.90
19483;DHT22;9882;51.166;6.992;2022-12-20T04:19:15;9.20;99.90
19483;DHT22;9882;51.166;6.992;2022-12-20T04:21:46;9.10;99.90
19483;DHT22;9882;51.166;6.992;2022-12-20T04:24:18;9.10;99.90
19483;DHT22;9882;51.166;6.992;2022-12-20T04:27:14;9.10;99.90
19483;DHT22;9882;51.166;6.992;2022-12-20T04:29:43;9.10;99.90
19483;DHT22;9882;51.166;6.992;2022-12-20T04:32:17;9.10;99.90
19483;DHT22;9882;51.166;6.992;2022-12-20T04:34:48;9.20;99.90
19483;DHT22;9882;51.166;6.992;2022-12-20T04:37:18;9.10;99.90
19483;DHT22;9882;51.166;6.992;2022-12-20T04:39:52;9.10;99.90
19483;DHT22;9882;51.166;6.992;2022-12-20T04:42:54;9.20;99.90
19483;DHT22;9882;51.166;6.992;2022-12-20T04:45:24;9.10;99.90
19483;DHT22;9882;51.166;6.992;2022-12-20T04:47:55;9.10;99.90
19483;DHT22;9882;51.166;6.992;2022-12-20T04:50:34;9.10;99.90
19483;DHT22;9882;51.166;6.992;2022-12-20T04:53:03;9.20;99.90
19483;DHT22;9882;51.166;6.992;2022-12-20T04:55:51;9.10;99.90
19483;DHT22;9882;51.166;6.992;2022-12-20T04:58:20;9.10;99.90
19483;DHT22;9882;51.166;6.992;2022-12-20T05:00:50;9.00;99.90
19483;DHT22;9882;51.166;6.992;2022-12-20T05:03:27;9.00;99.90
19483;DHT22;9882;51.166;6.992;2022-12-20T05:05:56;9.10;99.90
19483;DHT22;9882;51.166;6.992;2022-12-20T05:08:26;9.00;99.90
19483;DHT22;9882;51.166;6.992;2022-12-20T05:10:55;9.00;99.90
19483;DHT22;9882;51.166;6.992;2022-12-20T05:13:24;9.10;99.90
19483;DHT22;9882;51.166;6.992;2022-12-20T05:15:54;9.10;99.90
19483;DHT22;9882;51.166;6.992;2022-12-20T05:18:29;9.10;99.90
19483;DHT22;9882;51.166;6.992;2022-12-20T05:21:05;9.10;99.90
19483;DHT22;9882;51.166;6.992;2022-12-20T05:23:53;9.10;99.90
19483;DHT22;9882;51.166;6.992;2022-12-20T05:26:53;9.20;99.90
19483;DHT22;9882;51.166;6.992;2022-12-20T05:29:22;9.10;99.90
19483;DHT22;9882;51.166;6.992;2022-12-20T05:31:52;9.10;99.90
19483;DHT22;9882;51.166;6.992;2022-12-20T05:34:23;9.20;99.90
19483;DHT22;9882;51.166;6.992;2022-12-20T05:36:54;9.10;99.90
19483;DHT22;9882;51.166;6.992;2022-12-20T05:39:27;9.10;99.90
19483;DHT22;9882;51.166;6.992;2022-12-20T05:42:00;9.10;99.90
19483;DHT22;9882;51.166;6.992;2022-12-20T05:44:29;9.10;99.90
19483;DHT22;9882;51.166;6.992;2022-12-20T05:46:59;9.00;99.90
19483;DHT22;9882;51.166;6.992;2022-12-20T05:49:31;9.10;99.90
19483;DHT22;9882;51.166;6.992;2022-12-20T05:52:03;9.10;99.90
19483;DHT22;9882;51.166;6.992;2022-12-20T05:54:34;9.00;99.90
19483;DHT22;9882;51.166;6.992;2022-12-20T05:57:12;9.10;99.90
19483;DHT22;9882;51.166;6.992;2022-12-20T05:59:42;9.10;99.90
19483;DHT22;9882;51.166;6.992;2022-12-20T06:02:17;9.00;99.90
19483;DHT22;9882;51.166;6.992;2022-12-20T06:04:51;9.10;99.90
19483;DHT22;9882;51.166;6.992;2022-12-20T06:07:22;9.10;99.90
19483;DHT22;9882;51.166;6.992;2022-12-20T06:09:55;9.10;99.90
19483;DHT22;9882;51.166;6.992;2022-12-20T06:12:35;9.10;99.90
19483;DHT22;9882;51.166;6.992;2022-12-20T06:15:05;9.10;99.90
19483;DHT22;9882;51.166;6.992;2022-12-20T06:17:38;9.20;99.90
19483;DHT22;9882;51.166;6.992;2022-12-20T06:20:09;9.20;99.90
19483;DHT22;9882;51.166;6.992;2022-12-20T06:22:43;9.10;99.90
19483;DHT22;9882;51.166;6.992;2022-12-20T06:25:14;9.10;99.90
19483;DHT22;9882;51.166;6.992;2022-12-20T06:27:43;9.10;99.90
19483;DHT22;9882;51.166;6.992;2022-12-20T06:30:15;9.20;99.90
19483;DHT22;9882;51.166;6.992;2022-12-20T06:33:05;9.20;99.90
19483;DHT22;9882;51.166;6.992;2022-12-20T06:35:35;9.20;99.90
19483;DHT22;9882;51.166;6.992;2022-12-20T06:38:05;9.20;99.90
19483;DHT22;9882;51.166;6.992;2022-12-20T06:40:35;9.20;99.90
19483;DHT22;9882;51.166;6.992;2022-12-20T06:43:04;9.20;99.90
19483;DHT22;9882;51.166;6.992;2022-12-20T06:45:32;9.10;99.90
19483;DHT22;9882;51.166;6.992;2022-12-20T06:48:06;9.10;99.90
19483;DHT22;9882;51.166;6.992;2022-12-20T06:50:37;9.20;99.90
19483;DHT22;9882;51.166;6.992;2022-12-20T06:53:07;9.20;99.90
19483;DHT22;9882;51.166;6.992;2022-12-20T06:55:35;9.20;99.90
19483;DHT22;9882;51.166;6.992;2022-12-20T06:58:05;9.20;99.90
19483;DHT22;9882;51.166;6.992;2022-12-20T07:00:36;9.20;99.90
19483;DHT22;9882;51.166;6.992;2022-12-20T07:03:05;9.20;99.90
19483;DHT22;9882;51.166;6.992;2022-12-20T07:05:36;9.20;99.90
19483;DHT22;9882;51.166;6.992;2022-12-20T07:08:05;9.20;99.90
19483;DHT22;9882;51.166;6.992;2022-12-20T07:10:34;9.20;99.90
19483;DHT22;9882;51.166;6.992;2022-12-20T07:13:03;9.10;99.90
19483;DHT22;9882;51.166;6.992;2022-12-20T07:15:32;9.20;99.90
19483;DHT22;9882;51.166;6.992;2022-12-20T07:18:01;9.10;99.90
19483;DHT22;9882;51.166;6.992;2022-12-20T07:20:30;9.10;99.90
19483;DHT22;9882;51.166;6.992;2022-12-20T07:23:00;9.20;99.90
19483;DHT22;9882;51.166;6.992;2022-12-20T07:25:29;9.20;99.90
19483;DHT22;9882;51.166;6.992;2022-12-20T07:27:58;9.20;99.90
19483;DHT22;9882;51.166;6.992;2022-12-20T07:30:27;9.20;99.90
19483;DHT22;9882;51.166;6.992;2022-12-20T07:32:55;9.20;99.90
19483;DHT22;9882;51.166;6.992;2022-12-20T07:35:24;9.10;99.90
19483;DHT22;9882;51.166;6.992;2022-12-20T07:37:54;9.10;99.90
19483;DHT22;9882;51.166;6.992;2022-12-20T07:40:24;9.10;99.90
19483;DHT22;9882;51.166;6.992;2022-12-20T07:42:53;9.20;99.90
19483;DHT22;9882;51.166;6.992;2022-12-20T07:45:22;9.20;99.90
19483;DHT22;9882;51.166;6.992;2022-12-20T07:47:50;9.20;99.90
19483;DHT22;9882;51.166;6.992;2022-12-20T07:50:19;9.20;99.90
19483;DHT22;9882;51.166;6.992;2022-12-20T07:52:48;9.20;99.90
19483;DHT22;9882;51.166;6.992;2022-12-20T07:55:18;9.10;99.90
19483;DHT22;9882;51.166;6.992;2022-12-20T07:57:51;9.10;99.90
19483;DHT22;9882;51.166;6.992;2022-12-20T08:00:21;9.20;99.90
19483;DHT22;9882;51.166;6.992;2022-12-20T08:02:54;9.30;99.90
19483;DHT22;9882;51.166;6.992;2022-12-20T08:05:23;9.20;99.90
19483;DHT22;9882;51.166;6.992;2022-12-20T08:07:54;9.20;99.90
19483;DHT22;9882;51.166;6.992;2022-12-20T08:10:26;9.20;99.90
19483;DHT22;9882;51.166;6.992;2022-12-20T08:12:57;9.30;99.90
19483;DHT22;9882;51.166;6.992;2022-12-20T08:15:27;9.30;99.90
19483;DHT22;9882;51.166;6.992;2022-12-20T08:17:56;9.20;99.90
19483;DHT22;9882;51.166;6.992;2022-12-20T08:20:25;9.30;99.90
19483;DHT22;9882;51.166;6.992;2022-12-20T08:22:54;9.40;99.90
19483;DHT22;9882;51.166;6.992;2022-12-20T08:25:23;9.50;99.90
19483;DHT22;9882;51.166;6.992;2022-12-20T08:27:52;9.40;99.90
19483;DHT22;9882;51.166;6.992;2022-12-20T08:30:22;9.40;99.90
19483;DHT22;9882;51.166;6.992;2022-12-20T08:32:51;9.30;99.90
19483;DHT22;9882;51.166;6.992;2022-12-20T08:35:20;9.30;99.90
19483;DHT22;9882;51.166;6.992;2022-12-20T08:37:50;9.30;99.90
19483;DHT22;9882;51.166;6.992;2022-12-20T08:40:19;9.30;99.90
19483;DHT22;9882;51.166;6.992;2022-12-20T08:42:48;9.40;99.90
19483;DHT22;9882;51.166;6.992;2022-12-20T08:45:16;9.40;99.90
19483;DHT22;9882;51.166;6.992;2022-12-20T08:47:47;9.40;99.90
19483;DHT22;9882;51.166;6.992;2022-12-20T08:50:16;9.30;99.90
19483;DHT22;9882;51.166;6.992;2022-12-20T08:52:46;9.40;99.90
19483;DHT22;9882;51.166;6.992;2022-12-20T08:55:14;9.40;99.90
19483;DHT22;9882;51.166;6.992;2022-12-20T08:57:43;9.30;99.90
19483;DHT22;9882;51.166;6.992;2022-12-20T09:00:13;9.30;99.90
19483;DHT22;9882;51.166;6.992;2022-12-20T09:02:42;9.30;99.90
19483;DHT22;9882;51.166;6.992;2022-12-20T09:05:13;9.30;99.90
19483;DHT22;9882;51.166;6.992;2022-12-20T09:07:41;9.30;99.90
19483;DHT22;9882;51.166;6.992;2022-12-20T09:10:11;9.40;99.90
19483;DHT22;9882;51.166;6.992;2022-12-20T09:12:41;9.40;99.90
19483;DHT22;9882;51.166;6.992;2022-12-20T09:17:37;9.50;99.90
19483;DHT22;9882;51.166;6.992;2022-12-20T09:20:07;9.40;99.90
19483;DHT22;9882;51.166;6.992;2022-12-20T09:22:36;9.40;99.90
19483;DHT22;9882;51.166;6.992;2022-12-20T09:25:06;9.50;99.90
19483;DHT22;9882;51.166;6.992;2022-12-20T09:27:35;9.40;99.90
19483;DHT22;9882;51.166;6.992;2022-12-20T09:30:05;9.40;99.90
19483;DHT22;9882;51.166;6.992;2022-12-20T09:32:33;9.50;99.90
19483;DHT22;9882;51.166;6.992;2022-12-20T09:35:02;9.40;99.90
19483;DHT22;9882;51.166;6.992;2022-12-20T09:37:31;9.40;99.90
19483;DHT22;9882;51.166;6.992;2022-12-20T09:40:01;9.40;99.90
19483;DHT22;9882;51.166;6.992;2022-12-20T09:42:31;9.50;99.90
19483;DHT22;9882;51.166;6.992;2022-12-20T09:45:03;9.40;99.90
19483;DHT22;9882;51.166;6.992;2022-12-20T09:47:34;9.30;99.90
19483;DHT22;9882;51.166;6.992;2022-12-20T09:50:04;9.40;99.90
19483;DHT22;9882;51.166;6.992;2022-12-20T09:52:46;9.60;99.90
19483;DHT22;9882;51.166;6.992;2022-12-20T09:55:26;9.60;99.90
19483;DHT22;9882;51.166;6.992;2022-12-20T09:58:13;9.50;99.90
19483;DHT22;9882;51.166;6.992;2022-12-20T10:00:46;9.60;99.90
19483;DHT22;9882;51.166;6.992;2022-12-20T10:03:21;9.60;99.90
19483;DHT22;9882;51.166;6.992;2022-12-20T10:05:52;9.80;99.90
19483;DHT22;9882;51.166;6.992;2022-12-20T10:08:33;9.70;99.90
19483;DHT22;9882;51.166;6.992;2022-12-20T10:11:10;9.90;99.90
19483;DHT22;9882;51.166;6.992;2022-12-20T10:13:52;9.80;99.90
19483;DHT22;9882;51.166;6.992;2022-12-20T10:16:33;9.70;99.90
19483;DHT22;9882;51.166;6.992;2022-12-20T10:19:13;9.80;99.90
19483;DHT22;9882;51.166;6.992;2022-12-20T10:21:52;9.70;99.90
19483;DHT22;9882;51.166;6.992;2022-12-20T10:24:26;9.70;99.90
19483;DHT22;9882;51.166;6.992;2022-12-20T10:27:03;9.80;99.90
19483;DHT22;9882;51.166;6.992;2022-12-20T10:29:34;9.80;99.90
19483;DHT22;9882;51.166;6.992;2022-12-20T10:32:11;9.90;99.90
19483;DHT22;9882;51.166;6.992;2022-12-20T10:34:45;10.00;99.90
19483;DHT22;9882;51.166;6.992;2022-12-20T10:37:17;10.00;99.90
19483;DHT22;9882;51.166;6.992;2022-12-20T10:39:47;9.90;99.90
19483;DHT22;9882;51.166;6.992;2022-12-20T10:42:28;9.90;99.90
19483;DHT22;9882;51.166;6.992;2022-12-20T10:44:58;10.00;99.90
19483;DHT22;9882;51.166;6.992;2022-12-20T10:47:35;9.80;99.90
19483;DHT22;9882;51.166;6.992;2022-12-20T10:50:16;9.90;99.90
19483;DHT22;9882;51.166;6.992;2022-12-20T10:53:02;9.90;99.90
19483;DHT22;9882;51.166;6.992;2022-12-20T10:55:34;9.70;99.90
19483;DHT22;9882;51.166;6.992;2022-12-20T10:58:13;10.10;99.90
19483;DHT22;9882;51.166;6.992;2022-12-20T11:00:43;9.90;99.90
19483;DHT22;9882;51.166;6.992;2022-12-20T11:03:16;10.00;99.90
19483;DHT22;9882;51.166;6.992;2022-12-20T11:05:56;10.00;99.90
19483;DHT22;9882;51.166;6.992;2022-12-20T11:08:27;10.00;99.90
19483;DHT22;9882;51.166;6.992;2022-12-20T11:11:15;10.10;99.90
19483;DHT22;9882;51.166;6.992;2022-12-20T11:13:45;10.30;99.90
19483;DHT22;9882;51.166;6.992;2022-12-20T11:16:34;10.20;99.90
19483;DHT22;9882;51.166;6.992;2022-12-20T11:19:29;10.20;99.90
19483;DHT22;9882;51.166;6.992;2022-12-20T11:22:03;10.20;99.90
19483;DHT22;9882;51.166;6.992;2022-12-20T11:24:37;10.40;99.90
19483;DHT22;9882;51.166;6.992;2022-12-20T11:27:17;10.40;99.90
19483;DHT22;9882;51.166;6.992;2022-12-20T11:30:03;10.40;99.90
19483;DHT22;9882;51.166;6.992;2022-12-20T11:32:59;10.50;99.90
19483;DHT22;9882;51.166;6.992;2022-12-20T11:35:40;10.50;99.90
19483;DHT22;9882;51.166;6.992;2022-12-20T11:38:18;10.50;99.90
19483;DHT22;9882;51.166;6.992;2022-12-20T11:40:54;10.40;99.90
19483;DHT22;9882;51.166;6.992;2022-12-20T11:43:34;10.60;99.90
19483;DHT22;9882;51.166;6.992;2022-12-20T11:46:25;10.50;99.90
19483;DHT22;9882;51.166;6.992;2022-12-20T11:49:21;10.50;99.90
19483;DHT22;9882;51.166;6.992;2022-12-20T11:51:58;10.50;99.90
19483;DHT22;9882;51.166;6.992;2022-12-20T11:54:34;10.40;99.90
19483;DHT22;9882;51.166;6.992;2022-12-20T11:57:09;10.60;99.90
19483;DHT22;9882;51.166;6.992;2022-12-20T11:59:43;10.50;99.90
19483;DHT22;9882;51.166;6.992;2022-12-20T12:02:19;10.60;99.90
19483;DHT22;9882;51.166;6.992;2022-12-20T12:04:54;10.70;99.90
19483;DHT22;9882;51.166;6.992;2022-12-20T12:07:27;10.50;99.90
19483;DHT22;9882;51.166;6.992;2022-12-20T12:10:00;10.60;99.90
19483;DHT22;9882;51.166;6.992;2022-12-20T12:12:32;10.70;99.90
19483;DHT22;9882;51.166;6.992;2022-12-20T12:15:04;10.80;99.90
19483;DHT22;9882;51.166;6.992;2022-12-20T12:17:41;10.80;99.90
19483;DHT22;9882;51.166;6.992;2022-12-20T12:20:27;10.60;99.90
19483;DHT22;9882;51.166;6.992;2022-12-20T12:23:04;10.70;99.90
19483;DHT22;9882;51.166;6.992;2022-12-20T12:25:34;10.70;99.90
19483;DHT22;9882;51.166;6.992;2022-12-20T12:28:03;10.70;99.90
19483;DHT22;9882;51.166;6.992;2022-12-20T12:30:38;10.70;99.90
19483;DHT22;9882;51.166;6.992;2022-12-20T12:33:14;10.60;99.90
19483;DHT22;9882;51.166;6.992;2022-12-20T12:36:00;10.60;99.90
19483;DHT22;9882;51.166;6.992;2022-12-20T12:38:54;10.70;99.90
19483;DHT22;9882;51.166;6.992;2022-12-20T12:41:50;10.70;99.90
19483;DHT22;9882;51.166;6.992;2022-12-20T12:44:35;10.70;99.90
19483;DHT22;9882;51.166;6.992;2022-12-20T12:47:13;10.60;99.90
19483;DHT22;9882;51.166;6.992;2022-12-20T12:49:47;10.60;99.90
19483;DHT22;9882;51.166;6.992;2022-12-20T12:52:33;10.60;99.90
19483;DHT22;9882;51.166;6.992;2022-12-20T12:55:38;10.70;99.90
19483;DHT22;9882;51.166;6.992;2022-12-20T13:01:09;10.60;99.90
19483;DHT22;9882;51.166;6.992;2022-12-20T13:04:08;10.60;99.90
19483;DHT22;9882;51.166;6.992;2022-12-20T13:07:02;10.60;99.90
19483;DHT22;9882;51.166;6.992;2022-12-20T13:09:51;10.50;99.90
19483;DHT22;9882;51.166;6.992;2022-12-20T13:12:52;10.50;99.90
19483;DHT22;9882;51.166;6.992;2022-12-20T13:15:48;10.40;99.90
19483;DHT22;9882;51.166;6.992;2022-12-20T13:18:25;10.40;99.90
19483;DHT22;9882;51.166;6.992;2022-12-20T13:24:38;10.40;99.90
19483;DHT22;9882;51.166;6.992;2022-12-20T13:27:34;10.40;99.90
19483;DHT22;9882;51.166;6.992;2022-12-20T13:30:25;10.30;99.90
19483;DHT22;9882;51.166;6.992;2022-12-20T13:33:16;10.40;99.90
19483;DHT22;9882;51.166;6.992;2022-12-20T13:35:55;10.40;99.90
19483;DHT22;9882;51.166;6.992;2022-12-20T13:38:49;10.40;99.90
19483;DHT22;9882;51.166;6.992;2022-12-20T13:41:36;10.40;99.90
19483;DHT22;9882;51.166;6.992;2022-12-20T13:44:39;10.40;99.90
19483;DHT22;9882;51.166;6.992;2022-12-20T13:47:22;10.40;99.90
19483;DHT22;9882;51.166;6.992;2022-12-20T13:49:54;10.50;99.90
19483;DHT22;9882;51.166;6.992;2022-12-20T13:52:28;10.40;99.90
19483;DHT22;9882;51.166;6.992;2022-12-20T13:54:59;10.40;99.90
19483;DHT22;9882;51.166;6.992;2022-12-20T13:57:31;10.40;99.90
19483;DHT22;9882;51.166;6.992;2022-12-20T14:00:04;10.50;99.90
19483;DHT22;9882;51.166;6.992;2022-12-20T14:02:39;10.40;99.90
19483;DHT22;9882;51.166;6.992;2022-12-20T14:05:17;10.40;99.90
19483;DHT22;9882;51.166;6.992;2022-12-20T14:07:52;10.50;99.90
19483;DHT22;9882;51.166;6.992;2022-12-20T14:10:24;10.40;99.90
19483;DHT22;9882;51.166;6.992;2022-12-20T14:12:55;10.40;99.90
19483;DHT22;9882;51.166;6.992;2022-12-20T14:15:27;10.30;99.90
19483;DHT22;9882;51.166;6.992;2022-12-20T14:18:03;10.40;99.90
19483;DHT22;9882;51.166;6.992;2022-12-20T14:20:33;10.40;99.90
19483;DHT22;9882;51.166;6.992;2022-12-20T14:23:04;10.40;99.90
19483;DHT22;9882;51.166;6.992;2022-12-20T14:25:36;10.40;99.90
19483;DHT22;9882;51.166;6.992;2022-12-20T14:28:24;10.40;99.90
19483;DHT22;9882;51.166;6.992;2022-12-20T14:30:55;10.40;99.90
19483;DHT22;9882;51.166;6.992;2022-12-20T14:33:29;10.30;99.90
19483;DHT22;9882;51.166;6.992;2022-12-20T14:36:07;10.40;99.90
19483;DHT22;9882;51.166;6.992;2022-12-20T14:38:36;10.40;99.90
19483;DHT22;9882;51.166;6.992;2022-12-20T14:41:30;10.40;99.90
19483;DHT22;9882;51.166;6.992;2022-12-20T14:44:10;10.40;99.90
19483;DHT22;9882;51.166;6.992;2022-12-20T14:46:46;10.40;99.90
19483;DHT22;9882;51.166;6.992;2022-12-20T14:49:24;10.40;99.90
19483;DHT22;9882;51.166;6.992;2022-12-20T14:52:05;10.40;99.90
19483;DHT22;9882;51.166;6.992;2022-12-20T14:54:34;10.40;99.90
19483;DHT22;9882;51.166;6.992;2022-12-20T14:57:36;10.40;99.90
19483;DHT22;9882;51.166;6.992;2022-12-20T15:00:14;10.40;99.90
19483;DHT22;9882;51.166;6.992;2022-12-20T15:02:48;10.40;99.90
19483;DHT22;9882;51.166;6.992;2022-12-20T15:05:50;10.40;99.90
19483;DHT22;9882;51.166;6.992;2022-12-20T15:08:21;10.40;99.90
19483;DHT22;9882;51.166;6.992;2022-12-20T15:10:56;10.50;99.90
19483;DHT22;9882;51.166;6.992;2022-12-20T15:13:29;10.40;99.90
19483;DHT22;9882;51.166;6.992;2022-12-20T15:16:00;10.40;99.90
19483;DHT22;9882;51.166;6.992;2022-12-20T15:18:30;10.40;99.90
19483;DHT22;9882;51.166;6.992;2022-12-20T15:21:04;10.40;99.90
19483;DHT22;9882;51.166;6.992;2022-12-20T15:23:34;10.40;99.90
19483;DHT22;9882;51.166;6.992;2022-12-20T15:26:02;10.30;99.90
19483;DHT22;9882;51.166;6.992;2022-12-20T15:28:31;10.40;99.90
19483;DHT22;9882;51.166;6.992;2022-12-20T15:31:01;10.40;99.90
19483;DHT22;9882;51.166;6.992;2022-12-20T15:33:32;10.30;99.90
19483;DHT22;9882;51.166;6.992;2022-12-20T15:36:01;10.30;99.90
19483;DHT22;9882;51.166;6.992;2022-12-20T15:38:30;10.30;99.90
19483;DHT22;9882;51.166;6.992;2022-12-20T15:41:18;10.30;99.90
19483;DHT22;9882;51.166;6.992;2022-12-20T15:43:50;10.20;99.90
19483;DHT22;9882;51.166;6.992;2022-12-20T15:46:20;10.20;99.90
19483;DHT22;9882;51.166;6.992;2022-12-20T15:48:49;10.30;99.90
19483;DHT22;9882;51.166;6.992;2022-12-20T15:51:23;10.30;99.90
19483;DHT22;9882;51.166;6.992;2022-12-20T15:53:53;10.30;99.90
19483;DHT22;9882;51.166;6.992;2022-12-20T15:56:23;10.30;99.90
19483;DHT22;9882;51.166;6.992;2022-12-20T15:58:52;10.30;99.90
19483;DHT22;9882;51.166;6.992;2022-12-20T16:01:25;10.30;99.90
19483;DHT22;9882;51.166;6.992;2022-12-20T16:03:54;10.30;99.90
19483;DHT22;9882;51.166;6.992;2022-12-20T16:06:23;10.40;99.90
19483;DHT22;9882;51.166;6.992;2022-12-20T16:08:51;10.40;99.90
19483;DHT22;9882;51.166;6.992;2022-12-20T16:11:22;10.30;99.90
19483;DHT22;9882;51.166;6.992;2022-12-20T16:13:51;10.30;99.90
19483;DHT22;9882;51.166;6.992;2022-12-20T16:16:22;10.30;99.90
19483;DHT22;9882;51.166;6.992;2022-12-20T16:19:02;10.30;99.90
19483;DHT22;9882;51.166;6.992;2022-12-20T16:21:33;10.30;99.90
19483;DHT22;9882;51.166;6.992;2022-12-20T16:24:02;10.30;99.90
19483;DHT22;9882;51.166;6.992;2022-12-20T16:26:31;10.30;99.90
19483;DHT22;9882;51.166;6.992;2022-12-20T16:28:59;10.30;99.90
19483;DHT22;9882;51.166;6.992;2022-12-20T16:31:31;10.30;99.90
19483;DHT22;9882;51.166;6.992;2022-12-20T16:34:02;10.20;99.90
19483;DHT22;9882;51.166;6.992;2022-12-20T16:36:31;10.30;99.90
19483;DHT22;9882;51.166;6.992;2022-12-20T16:39:00;10.30;99.90
19483;DHT22;9882;51.166;6.992;2022-12-20T16:41:30;10.30;99.90
19483;DHT22;9882;51.166;6.992;2022-12-20T16:44:00;10.30;99.90
19483;DHT22;9882;51.166;6.992;2022-12-20T16:46:31;10.40;99.90
19483;DHT22;9882;51.166;6.992;2022-12-20T16:49:00;10.40;99.90
19483;DHT22;9882;51.166;6.992;2022-12-20T16:51:31;10.30;99.90